createdAt,value
2019-05-14T00:02:51.889Z,9.24
2019-05-14T00:07:58.404Z,9.22
2019-05-14T00:13:05.836Z,9.22
2019-05-14T00:18:13.174Z,9.21
2019-05-14T00:23:21.461Z,9.16
2019-05-14T00:28:31.547Z,9.16
2019-05-14T00:33:38.239Z,9.16
2019-05-14T00:38:45.597Z,9.10
2019-05-14T00:43:52.939Z,9.05
2019-05-14T00:49:01.803Z,9.01
2019-05-14T00:54:11.167Z,9.00
2019-05-14T00:59:18.450Z,9.04
2019-05-14T01:04:25.898Z,9.04
2019-05-14T01:09:33.300Z,9.04
2019-05-14T01:14:42.333Z,9.03
2019-05-14T01:19:51.363Z,9.05
2019-05-14T01:24:58.695Z,9.07
2019-05-14T01:30:06.813Z,9.07
2019-05-14T01:35:14.344Z,9.05
2019-05-14T01:40:21.964Z,9.03
2019-05-14T01:45:31.550Z,9.00
2019-05-14T01:50:38.510Z,8.97
2019-05-14T01:55:45.961Z,8.93
2019-05-14T02:00:53.378Z,8.90
2019-05-14T02:06:01.478Z,8.88
2019-05-14T02:11:09.029Z,8.84
2019-05-14T02:16:16.490Z,8.80
2019-05-14T02:21:23.894Z,8.76
2019-05-14T02:26:31.713Z,8.70
2019-05-14T02:31:39.467Z,8.60
2019-05-14T02:36:49.719Z,8.53
2019-05-14T02:41:58.756Z,8.51
2019-05-14T02:47:04.953Z,8.44
2019-05-14T02:52:12.398Z,8.35
2019-05-14T02:57:20.252Z,8.23
2019-05-14T03:02:29.690Z,8.10
2019-05-14T03:07:39.259Z,7.99
2019-05-14T03:12:49.212Z,7.86
2019-05-14T03:17:56.164Z,7.78
2019-05-14T03:23:08.869Z,7.72
2019-05-14T03:28:12.682Z,7.60
2019-05-14T03:33:22.005Z,7.49
2019-05-14T03:38:29.794Z,7.43
2019-05-14T03:43:39.133Z,7.36
2019-05-14T03:48:49.372Z,7.32
2019-05-14T03:54:05.674Z,7.26
2019-05-14T03:59:05.321Z,7.20
2019-05-14T04:04:13.220Z,7.17
2019-05-14T04:09:23.660Z,7.12
2019-05-14T04:14:33.652Z,7.09
2019-05-14T04:19:43.969Z,7.06
2019-05-14T04:24:55.308Z,7.05
2019-05-14T04:30:04.099Z,7.05
2019-05-14T04:35:12.226Z,7.02
2019-05-14T04:40:19.703Z,7.00
2019-05-14T04:45:29.654Z,6.99
2019-05-14T04:50:36.334Z,6.99
2019-05-14T04:55:43.930Z,6.99
2019-05-14T05:00:51.369Z,7.01
2019-05-14T05:05:59.108Z,7.04
2019-05-14T05:11:09.323Z,7.09
2019-05-14T05:16:15.731Z,7.17
2019-05-14T05:21:23.139Z,7.24
2019-05-14T05:26:30.440Z,7.37
2019-05-14T05:31:38.245Z,7.48
2019-05-14T05:36:45.775Z,7.68
2019-05-14T05:41:53.148Z,7.87
2019-05-14T05:47:00.454Z,8.09
2019-05-14T05:52:08.513Z,8.28
2019-05-14T05:57:18.566Z,8.43
2019-05-14T06:02:25.232Z,8.58
2019-05-14T06:07:32.618Z,8.73
2019-05-14T06:12:39.927Z,8.86
2019-05-14T06:17:49.235Z,8.84
2019-05-14T06:22:58.735Z,9.00
2019-05-14T06:28:05.613Z,9.35
2019-05-14T06:33:13.017Z,9.49
2019-05-14T06:38:20.348Z,9.65
2019-05-14T06:43:28.781Z,9.73
2019-05-14T06:48:39.290Z,9.85
2019-05-14T06:53:45.587Z,9.97
2019-05-14T06:58:52.944Z,10.04
2019-05-14T07:04:00.328Z,10.15
2019-05-14T07:09:08.421Z,10.07
2019-05-14T07:14:15.812Z,10.02
2019-05-14T07:19:23.255Z,10.17
2019-05-14T07:24:30.724Z,10.05
2019-05-14T07:29:38.803Z,9.87
2019-05-14T07:34:48.222Z,9.83
2019-05-14T07:39:57.850Z,9.94
2019-05-14T07:45:05.095Z,9.96
2019-05-14T07:50:12.920Z,10.08
2019-05-14T07:55:20.287Z,10.42
2019-05-14T08:00:28.618Z,10.97
2019-05-14T08:05:36.068Z,11.05
2019-05-14T08:10:43.492Z,10.96
2019-05-14T08:15:50.857Z,10.99
2019-05-14T08:20:59.251Z,10.91
2019-05-14T08:26:07.952Z,10.69
2019-05-14T08:31:15.556Z,10.59
2019-05-14T08:36:22.890Z,10.58
2019-05-14T08:41:30.346Z,10.69
2019-05-14T08:46:38.846Z,10.68
2019-05-14T08:51:49.184Z,10.74
2019-05-14T08:56:58.202Z,10.86
2019-05-14T09:02:06.727Z,10.90
2019-05-14T09:07:13.721Z,11.08
2019-05-14T09:12:21.203Z,11.17
2019-05-14T09:17:28.957Z,11.15
2019-05-14T09:22:39.532Z,11.14
2019-05-14T09:27:45.537Z,11.27
2019-05-14T09:32:53.013Z,11.57
2019-05-14T09:38:01.246Z,11.93
2019-05-14T09:43:09.213Z,12.09
2019-05-14T09:48:18.055Z,12.40
2019-05-14T09:53:25.749Z,13.41
2019-05-14T09:58:33.202Z,13.84
2019-05-14T10:03:40.656Z,13.32
2019-05-14T10:08:48.596Z,12.67
2019-05-14T10:13:56.183Z,12.50
2019-05-14T10:19:03.614Z,13.20
2019-05-14T10:24:11.015Z,13.25
2019-05-14T10:29:19.170Z,13.07
2019-05-14T10:34:28.740Z,13.18
2019-05-14T10:39:38.863Z,13.96
2019-05-14T10:44:44.973Z,14.18
2019-05-14T10:49:52.387Z,14.57
2019-05-14T10:54:59.741Z,14.36
2019-05-14T11:00:08.873Z,13.94
2019-05-14T11:05:18.538Z,14.28
2019-05-14T11:10:25.641Z,14.02
2019-05-14T11:15:33.338Z,13.92
2019-05-14T11:20:42.224Z,14.32
2019-05-14T11:25:49.803Z,14.68
2019-05-14T11:30:57.219Z,14.76
2019-05-14T11:36:04.598Z,14.64
2019-05-14T11:41:12.091Z,14.91
2019-05-14T11:46:33.551Z,14.13
2019-05-14T11:51:56.102Z,12.91
2019-05-14T11:56:41.932Z,12.27
2019-05-14T12:01:49.184Z,12.16
2019-05-14T12:06:55.539Z,13.22
2019-05-14T12:12:03.047Z,14.98
2019-05-14T12:17:10.446Z,15.05
2019-05-14T12:22:19.006Z,15.86
2019-05-14T12:27:26.689Z,15.39
2019-05-14T12:32:34.141Z,14.40
2019-05-14T12:37:41.639Z,13.62
2019-05-14T12:42:49.962Z,12.69
2019-05-14T12:47:58.498Z,11.47
2019-05-14T12:53:08.251Z,10.85
2019-05-14T12:58:14.937Z,10.71
2019-05-14T13:03:22.248Z,10.86
2019-05-14T13:08:29.618Z,11.24
2019-05-14T13:13:42.442Z,11.59
2019-05-14T13:18:49.537Z,11.76
2019-05-14T13:23:56.306Z,11.69
2019-05-14T13:29:07.490Z,11.50
2019-05-14T13:34:12.888Z,11.36
2019-05-14T13:39:20.270Z,11.28
2019-05-14T13:44:29.229Z,11.36
2019-05-14T13:49:39.094Z,11.38
2019-05-14T13:54:45.849Z,11.26
2019-05-14T13:59:53.309Z,11.26
2019-05-14T14:05:00.617Z,11.44
2019-05-14T14:10:09.545Z,11.73
2019-05-14T14:15:18.224Z,11.95
2019-05-14T14:20:25.541Z,12.25
2019-05-14T14:25:32.810Z,12.35
2019-05-14T14:30:40.147Z,12.14
2019-05-14T14:35:48.551Z,11.96
2019-05-14T14:40:58.135Z,11.90
2019-05-14T14:46:07.253Z,11.89
2019-05-14T14:51:14.086Z,11.93
2019-05-14T14:56:21.595Z,11.97
2019-05-14T15:01:40.680Z,12.05
2019-05-14T15:06:50.921Z,12.11
2019-05-14T15:11:59.851Z,12.17
2019-05-14T15:17:06.176Z,12.21
2019-05-14T15:22:13.611Z,12.21
2019-05-14T15:27:21.015Z,12.33
2019-05-14T15:32:30.281Z,12.46
2019-05-14T15:37:42.274Z,12.54
2019-05-14T15:42:46.534Z,12.59
2019-05-14T15:47:53.895Z,12.74
2019-05-14T15:53:01.382Z,13.81
2019-05-14T15:58:08.964Z,15.10
2019-05-14T16:03:18.665Z,14.75
2019-05-14T16:08:25.602Z,14.16
2019-05-14T16:13:34.345Z,13.76
2019-05-14T16:18:41.799Z,13.59
2019-05-14T16:23:49.199Z,13.43
2019-05-14T16:34:44.420Z,13.21
2019-05-14T16:39:52.893Z,13.10
2019-05-14T16:45:00.449Z,13.04
2019-05-14T16:50:10.051Z,12.99
2019-05-14T16:55:24.500Z,12.94
2019-05-14T17:00:29.191Z,12.90
2019-05-14T17:05:38.049Z,12.79
2019-05-14T17:10:44.627Z,12.66
2019-05-14T17:15:52.036Z,12.53
2019-05-14T17:20:59.696Z,12.40
2019-05-14T17:26:08.845Z,12.24
2019-05-14T17:31:19.068Z,12.12
2019-05-14T17:36:28.114Z,12.12
2019-05-14T17:41:34.570Z,12.15
2019-05-14T17:46:42.004Z,12.11
2019-05-14T17:51:49.387Z,11.99
2019-05-14T17:56:59.048Z,11.88
2019-05-14T18:02:08.558Z,11.78
2019-05-14T18:07:15.488Z,11.72
2019-05-14T18:12:22.921Z,11.62
2019-05-14T18:17:30.438Z,11.51
2019-05-14T18:22:41.993Z,11.36
2019-05-14T18:27:49.880Z,11.15
2019-05-14T18:32:59.498Z,10.98
2019-05-14T18:38:08.245Z,10.80
2019-05-14T18:43:15.821Z,10.64
2019-05-14T18:48:23.283Z,10.48
2019-05-14T18:53:30.860Z,10.33
2019-05-14T18:58:38.890Z,10.20
2019-05-14T19:03:49.437Z,10.08
2019-05-14T19:08:56.805Z,9.82
2019-05-14T19:14:04.653Z,9.16
2019-05-14T19:19:12.465Z,8.67
2019-05-14T19:24:24.302Z,8.57
2019-05-14T19:29:32.843Z,8.52
2019-05-14T19:34:40.382Z,8.11
2019-05-14T19:39:48.493Z,8.16
2019-05-14T19:44:56.251Z,8.32
2019-05-14T19:50:04.070Z,8.12
2019-05-14T19:55:12.155Z,8.05
2019-05-14T20:00:28.614Z,7.89
2019-05-14T20:05:35.787Z,7.84
2019-05-14T20:10:43.840Z,7.66
2019-05-14T20:16:11.769Z,7.59
2019-05-14T20:21:19.297Z,7.26
2019-05-14T20:26:28.198Z,7.23
2019-05-14T20:31:36.134Z,7.26
2019-05-14T20:36:43.733Z,7.31
2019-05-14T20:41:51.348Z,6.93
2019-05-14T20:46:58.904Z,7.07
2019-05-14T20:52:08.629Z,6.95
2019-05-14T20:57:24.435Z,6.77
2019-05-14T21:02:29.451Z,6.59
2019-05-14T21:07:38.704Z,6.87
2019-05-14T21:12:48.834Z,6.76
2019-05-14T21:17:56.440Z,6.61
2019-05-14T21:23:04.028Z,6.69
2019-05-14T21:28:11.615Z,6.18
2019-05-14T21:33:19.062Z,5.98
2019-05-14T21:38:28.544Z,6.24
2019-05-14T21:43:35.535Z,6.16
2019-05-14T21:48:43.039Z,5.90
2019-05-14T21:53:50.545Z,5.83
2019-05-14T21:59:01.063Z,5.89
2019-05-14T22:04:08.738Z,6.17
2019-05-14T22:09:16.228Z,6.00
2019-05-14T22:14:23.762Z,5.68
2019-05-14T22:19:31.175Z,5.75
2019-05-14T22:24:38.620Z,5.69
2019-05-14T22:29:46.038Z,5.71
2019-05-14T22:34:53.446Z,5.72
2019-05-14T22:40:00.858Z,5.58
2019-05-14T22:45:09.465Z,5.59
2019-05-14T22:50:18.371Z,6.01
2019-05-14T22:55:25.966Z,5.87
2019-05-14T23:00:33.468Z,5.74
2019-05-14T23:05:40.819Z,6.03
2019-05-14T23:10:49.105Z,6.06
2019-05-14T23:15:58.750Z,5.76
2019-05-14T23:21:08.592Z,5.73
2019-05-14T23:26:14.709Z,5.85
2019-05-14T23:31:22.102Z,6.24
2019-05-14T23:36:29.663Z,6.27
2019-05-14T23:41:38.383Z,6.35
2019-05-14T23:46:49.847Z,6.47
2019-05-14T23:51:57.280Z,6.11
2019-05-14T23:57:04.735Z,6.37
